sensor_id;sensor_type;location;lat;lon;timestamp;temperature;humidity
10030;DHT22;5055;52.054;8.524;2022-11-20T00:01:33;-5.70;97.00
10030;DHT22;5055;52.054;8.524;2022-11-20T00:04:02;-5.70;97.00
10030;DHT22;5055;52.054;8.524;2022-11-20T00:06:30;-5.80;97.00
10030;DHT22;5055;52.054;8.524;2022-11-20T00:08:59;-5.80;97.00
10030;DHT22;5055;52.054;8.524;2022-11-20T00:11:30;-5.80;97.00
10030;DHT22;5055;52.054;8.524;2022-11-20T00:14:00;-5.80;97.00
10030;DHT22;5055;52.054;8.524;2022-11-20T00:16:32;-5.90;97.00
10030;DHT22;5055;52.054;8.524;2022-11-20T00:19:00;-5.90;97.00
10030;DHT22;5055;52.054;8.524;2022-11-20T00:21:29;-5.90;97.00
10030;DHT22;5055;52.054;8.524;2022-11-20T00:23:58;-5.90;97.00
10030;DHT22;5055;52.054;8.524;2022-11-20T00:26:28;-5.90;97.00
10030;DHT22;5055;52.054;8.524;2022-11-20T00:28:58;-5.90;97.00
10030;DHT22;5055;52.054;8.524;2022-11-20T00:31:30;-5.90;97.00
10030;DHT22;5055;52.054;8.524;2022-11-20T00:34:00;-5.90;97.00
10030;DHT22;5055;52.054;8.524;2022-11-20T00:36:31;-6.00;97.00
10030;DHT22;5055;52.054;8.524;2022-11-20T00:39:00;-6.00;97.00
10030;DHT22;5055;52.054;8.524;2022-11-20T00:41:29;-5.90;97.00
10030;DHT22;5055;52.054;8.524;2022-11-20T00:43:58;-5.90;97.00
10030;DHT22;5055;52.054;8.524;2022-11-20T00:46:27;-5.80;97.00
10030;DHT22;5055;52.054;8.524;2022-11-20T00:48:57;-5.80;97.00
10030;DHT22;5055;52.054;8.524;2022-11-20T00:51:27;-5.80;97.00
10030;DHT22;5055;52.054;8.524;2022-11-20T00:53:56;-5.90;97.00
10030;DHT22;5055;52.054;8.524;2022-11-20T00:56:25;-5.90;97.00
10030;DHT22;5055;52.054;8.524;2022-11-20T00:58:55;-5.90;97.00
10030;DHT22;5055;52.054;8.524;2022-11-20T01:01:24;-5.90;97.00
10030;DHT22;5055;52.054;8.524;2022-11-20T01:03:55;-5.90;97.00
10030;DHT22;5055;52.054;8.524;2022-11-20T01:06:27;-5.90;97.00
10030;DHT22;5055;52.054;8.524;2022-11-20T01:08:57;-5.90;97.00
10030;DHT22;5055;52.054;8.524;2022-11-20T01:11:26;-5.90;97.00
10030;DHT22;5055;52.054;8.524;2022-11-20T01:13:56;-5.90;97.00
10030;DHT22;5055;52.054;8.524;2022-11-20T01:16:27;-5.90;97.00
10030;DHT22;5055;52.054;8.524;2022-11-20T01:18:57;-5.90;97.00
10030;DHT22;5055;52.054;8.524;2022-11-20T01:21:29;-6.00;97.00
10030;DHT22;5055;52.054;8.524;2022-11-20T01:23:58;-6.00;97.00
10030;DHT22;5055;52.054;8.524;2022-11-20T01:26:29;-6.00;97.00
10030;DHT22;5055;52.054;8.524;2022-11-20T01:28:59;-6.00;97.00
10030;DHT22;5055;52.054;8.524;2022-11-20T01:31:29;-6.00;97.00
10030;DHT22;5055;52.054;8.524;2022-11-20T01:33:59;-6.10;97.00
10030;DHT22;5055;52.054;8.524;2022-11-20T01:36:31;-6.10;97.00
10030;DHT22;5055;52.054;8.524;2022-11-20T01:39:02;-6.10;97.00
10030;DHT22;5055;52.054;8.524;2022-11-20T01:41:33;-6.20;97.00
10030;DHT22;5055;52.054;8.524;2022-11-20T01:44:22;-6.20;97.00
10030;DHT22;5055;52.054;8.524;2022-11-20T01:46:55;-6.20;97.00
10030;DHT22;5055;52.054;8.524;2022-11-20T01:49:28;-6.10;97.00
10030;DHT22;5055;52.054;8.524;2022-11-20T01:52:02;-6.20;97.00
10030;DHT22;5055;52.054;8.524;2022-11-20T01:54:38;-6.20;97.00
10030;DHT22;5055;52.054;8.524;2022-11-20T01:57:10;-6.30;97.00
10030;DHT22;5055;52.054;8.524;2022-11-20T01:59:43;-6.30;97.00
10030;DHT22;5055;52.054;8.524;2022-11-20T02:02:12;-6.40;97.00
10030;DHT22;5055;52.054;8.524;2022-11-20T02:04:41;-6.40;97.00
10030;DHT22;5055;52.054;8.524;2022-11-20T02:07:11;-6.40;97.00
10030;DHT22;5055;52.054;8.524;2022-11-20T02:09:41;-6.50;97.00
10030;DHT22;5055;52.054;8.524;2022-11-20T02:12:10;-6.50;97.00
10030;DHT22;5055;52.054;8.524;2022-11-20T02:14:59;-6.50;97.00
10030;DHT22;5055;52.054;8.524;2022-11-20T02:17:28;-6.50;97.00
10030;DHT22;5055;52.054;8.524;2022-11-20T02:19:56;-6.60;97.00
10030;DHT22;5055;52.054;8.524;2022-11-20T02:22:30;-6.60;97.00
10030;DHT22;5055;52.054;8.524;2022-11-20T02:25:03;-6.60;97.00
10030;DHT22;5055;52.054;8.524;2022-11-20T02:27:32;-6.60;97.00
10030;DHT22;5055;52.054;8.524;2022-11-20T02:30:03;-6.50;97.00
10030;DHT22;5055;52.054;8.524;2022-11-20T02:32:34;-6.60;97.00
10030;DHT22;5055;52.054;8.524;2022-11-20T02:35:07;-6.60;97.00
10030;DHT22;5055;52.054;8.524;2022-11-20T02:37:39;-6.60;97.00
10030;DHT22;5055;52.054;8.524;2022-11-20T02:40:10;-6.60;97.00
10030;DHT22;5055;52.054;8.524;2022-11-20T02:42:39;-6.70;97.00
10030;DHT22;5055;52.054;8.524;2022-11-20T02:45:08;-6.70;97.00
10030;DHT22;5055;52.054;8.524;2022-11-20T02:47:37;-6.60;97.00
10030;DHT22;5055;52.054;8.524;2022-11-20T02:50:06;-6.60;97.00
10030;DHT22;5055;52.054;8.524;2022-11-20T02:52:35;-6.60;97.00
10030;DHT22;5055;52.054;8.524;2022-11-20T02:55:04;-6.60;97.00
10030;DHT22;5055;52.054;8.524;2022-11-20T02:57:34;-6.60;97.00
10030;DHT22;5055;52.054;8.524;2022-11-20T03:00:04;-6.60;97.00
10030;DHT22;5055;52.054;8.524;2022-11-20T03:02:34;-6.60;97.00
10030;DHT22;5055;52.054;8.524;2022-11-20T03:05:03;-6.60;97.00
10030;DHT22;5055;52.054;8.524;2022-11-20T03:07:32;-6.70;97.00
10030;DHT22;5055;52.054;8.524;2022-11-20T03:10:01;-6.70;97.00
10030;DHT22;5055;52.054;8.524;2022-11-20T03:12:29;-6.80;97.00
10030;DHT22;5055;52.054;8.524;2022-11-20T03:14:59;-6.80;97.00
10030;DHT22;5055;52.054;8.524;2022-11-20T03:17:28;-6.80;97.00
10030;DHT22;5055;52.054;8.524;2022-11-20T03:19:57;-6.80;97.00
10030;DHT22;5055;52.054;8.524;2022-11-20T03:22:28;-6.80;97.00
10030;DHT22;5055;52.054;8.524;2022-11-20T03:24:57;-6.80;97.00
10030;DHT22;5055;52.054;8.524;2022-11-20T03:27:25;-6.80;97.00
10030;DHT22;5055;52.054;8.524;2022-11-20T03:29:54;-6.80;97.00
10030;DHT22;5055;52.054;8.524;2022-11-20T03:32:24;-6.80;97.00
10030;DHT22;5055;52.054;8.524;2022-11-20T03:34:53;-6.80;97.00
10030;DHT22;5055;52.054;8.524;2022-11-20T03:37:21;-6.80;97.00
10030;DHT22;5055;52.054;8.524;2022-11-20T03:39:49;-6.90;97.00
10030;DHT22;5055;52.054;8.524;2022-11-20T03:42:18;-6.90;97.00
10030;DHT22;5055;52.054;8.524;2022-11-20T03:45:05;-6.90;97.00
10030;DHT22;5055;52.054;8.524;2022-11-20T03:47:35;-6.90;97.00
10030;DHT22;5055;52.054;8.524;2022-11-20T03:50:05;-6.90;97.00
10030;DHT22;5055;52.054;8.524;2022-11-20T03:52:34;-6.90;97.00
10030;DHT22;5055;52.054;8.524;2022-11-20T03:55:04;-6.90;97.00
10030;DHT22;5055;52.054;8.524;2022-11-20T03:57:32;-6.90;97.00
10030;DHT22;5055;52.054;8.524;2022-11-20T04:00:01;-6.90;97.00
10030;DHT22;5055;52.054;8.524;2022-11-20T04:02:29;-7.00;97.00
10030;DHT22;5055;52.054;8.524;2022-11-20T04:04:59;-7.00;97.00
10030;DHT22;5055;52.054;8.524;2022-11-20T04:07:28;-7.00;97.00
10030;DHT22;5055;52.054;8.524;2022-11-20T04:09:56;-7.00;97.00
10030;DHT22;5055;52.054;8.524;2022-11-20T04:12:25;-7.00;97.00
10030;DHT22;5055;52.054;8.524;2022-11-20T04:14:53;-7.00;97.00
10030;DHT22;5055;52.054;8.524;2022-11-20T04:17:22;-7.10;97.00
10030;DHT22;5055;52.054;8.524;2022-11-20T04:19:50;-7.10;97.00
10030;DHT22;5055;52.054;8.524;2022-11-20T04:22:20;-7.10;97.00
10030;DHT22;5055;52.054;8.524;2022-11-20T04:24:48;-7.10;97.00
10030;DHT22;5055;52.054;8.524;2022-11-20T04:27:17;-7.10;97.00
10030;DHT22;5055;52.054;8.524;2022-11-20T04:29:46;-7.10;97.00
10030;DHT22;5055;52.054;8.524;2022-11-20T04:32:15;-7.10;97.00
10030;DHT22;5055;52.054;8.524;2022-11-20T04:34:44;-7.10;97.00
10030;DHT22;5055;52.054;8.524;2022-11-20T04:37:12;-7.20;97.00
10030;DHT22;5055;52.054;8.524;2022-11-20T04:39:45;-7.20;97.00
10030;DHT22;5055;52.054;8.524;2022-11-20T04:42:14;-7.20;97.00
10030;DHT22;5055;52.054;8.524;2022-11-20T04:44:57;-7.20;97.00
10030;DHT22;5055;52.054;8.524;2022-11-20T04:47:26;-7.20;97.00
10030;DHT22;5055;52.054;8.524;2022-11-20T04:49:58;-7.20;97.00
10030;DHT22;5055;52.054;8.524;2022-11-20T04:52:26;-7.10;97.00
10030;DHT22;5055;52.054;8.524;2022-11-20T04:54:56;-7.10;97.00
10030;DHT22;5055;52.054;8.524;2022-11-20T04:57:25;-7.20;97.00
10030;DHT22;5055;52.054;8.524;2022-11-20T04:59:53;-7.20;97.00
10030;DHT22;5055;52.054;8.524;2022-11-20T05:02:22;-7.30;97.00
10030;DHT22;5055;52.054;8.524;2022-11-20T05:04:51;-7.30;97.00
10030;DHT22;5055;52.054;8.524;2022-11-20T05:07:19;-7.30;97.00
10030;DHT22;5055;52.054;8.524;2022-11-20T05:09:47;-7.30;97.00
10030;DHT22;5055;52.054;8.524;2022-11-20T05:12:17;-7.30;97.00
10030;DHT22;5055;52.054;8.524;2022-11-20T05:14:45;-7.30;97.00
10030;DHT22;5055;52.054;8.524;2022-11-20T05:17:13;-7.30;97.00
10030;DHT22;5055;52.054;8.524;2022-11-20T05:19:42;-7.30;97.00
10030;DHT22;5055;52.054;8.524;2022-11-20T05:22:14;-7.30;97.00
10030;DHT22;5055;52.054;8.524;2022-11-20T05:24:42;-7.30;97.00
10030;DHT22;5055;52.054;8.524;2022-11-20T05:27:11;-7.30;97.00
10030;DHT22;5055;52.054;8.524;2022-11-20T05:29:41;-7.30;97.00
10030;DHT22;5055;52.054;8.524;2022-11-20T05:32:09;-7.40;97.00
10030;DHT22;5055;52.054;8.524;2022-11-20T05:34:37;-7.40;97.00
10030;DHT22;5055;52.054;8.524;2022-11-20T05:37:05;-7.40;97.00
10030;DHT22;5055;52.054;8.524;2022-11-20T05:39:34;-7.40;97.00
10030;DHT22;5055;52.054;8.524;2022-11-20T05:42:05;-7.40;97.00
10030;DHT22;5055;52.054;8.524;2022-11-20T05:44:52;-7.50;97.00
10030;DHT22;5055;52.054;8.524;2022-11-20T05:47:21;-7.50;97.00
10030;DHT22;5055;52.054;8.524;2022-11-20T05:49:49;-7.50;97.00
10030;DHT22;5055;52.054;8.524;2022-11-20T05:52:18;-7.50;97.00
10030;DHT22;5055;52.054;8.524;2022-11-20T05:54:46;-7.50;97.00
10030;DHT22;5055;52.054;8.524;2022-11-20T05:57:14;-7.50;97.00
10030;DHT22;5055;52.054;8.524;2022-11-20T05:59:43;-7.50;97.00
10030;DHT22;5055;52.054;8.524;2022-11-20T06:02:13;-7.50;97.00
10030;DHT22;5055;52.054;8.524;2022-11-20T06:04:42;-7.60;97.00
10030;DHT22;5055;52.054;8.524;2022-11-20T06:07:10;-7.60;97.00
10030;DHT22;5055;52.054;8.524;2022-11-20T06:09:38;-7.60;97.00
10030;DHT22;5055;52.054;8.524;2022-11-20T06:12:07;-7.60;97.00
10030;DHT22;5055;52.054;8.524;2022-11-20T06:14:38;-7.50;97.00
10030;DHT22;5055;52.054;8.524;2022-11-20T06:17:06;-7.50;97.00
10030;DHT22;5055;52.054;8.524;2022-11-20T06:19:36;-7.50;97.00
10030;DHT22;5055;52.054;8.524;2022-11-20T06:22:04;-7.60;97.00
10030;DHT22;5055;52.054;8.524;2022-11-20T06:24:33;-7.60;97.00
10030;DHT22;5055;52.054;8.524;2022-11-20T06:27:01;-7.60;97.00
10030;DHT22;5055;52.054;8.524;2022-11-20T06:29:30;-7.60;97.00
10030;DHT22;5055;52.054;8.524;2022-11-20T06:32:00;-7.60;97.00
10030;DHT22;5055;52.054;8.524;2022-11-20T06:34:28;-7.60;97.00
10030;DHT22;5055;52.054;8.524;2022-11-20T06:36:58;-7.60;97.00
10030;DHT22;5055;52.054;8.524;2022-11-20T06:39:27;-7.60;97.00
10030;DHT22;5055;52.054;8.524;2022-11-20T06:41:55;-7.60;97.00
10030;DHT22;5055;52.054;8.524;2022-11-20T06:44:25;-7.60;97.00
10030;DHT22;5055;52.054;8.524;2022-11-20T06:46:54;-7.70;97.00
10030;DHT22;5055;52.054;8.524;2022-11-20T06:49:22;-7.60;97.00
10030;DHT22;5055;52.054;8.524;2022-11-20T06:51:51;-7.60;97.00
10030;DHT22;5055;52.054;8.524;2022-11-20T06:54:21;-7.60;97.00
10030;DHT22;5055;52.054;8.524;2022-11-20T06:56:50;-7.60;97.00
10030;DHT22;5055;52.054;8.524;2022-11-20T06:59:18;-7.60;97.00
10030;DHT22;5055;52.054;8.524;2022-11-20T07:01:47;-7.60;97.00
10030;DHT22;5055;52.054;8.524;2022-11-20T07:04:15;-7.50;97.00
10030;DHT22;5055;52.054;8.524;2022-11-20T07:06:44;-7.50;97.00
10030;DHT22;5055;52.054;8.524;2022-11-20T07:09:12;-7.50;97.00
10030;DHT22;5055;52.054;8.524;2022-11-20T07:11:42;-7.50;97.00
10030;DHT22;5055;52.054;8.524;2022-11-20T07:14:10;-7.40;97.00
10030;DHT22;5055;52.054;8.524;2022-11-20T07:16:39;-7.40;97.00
10030;DHT22;5055;52.054;8.524;2022-11-20T07:19:07;-7.40;97.00
10030;DHT22;5055;52.054;8.524;2022-11-20T07:21:35;-7.30;97.00
10030;DHT22;5055;52.054;8.524;2022-11-20T07:24:04;-7.10;97.00
10030;DHT22;5055;52.054;8.524;2022-11-20T07:26:35;-7.10;97.00
10030;DHT22;5055;52.054;8.524;2022-11-20T07:29:05;-7.00;97.00
10030;DHT22;5055;52.054;8.524;2022-11-20T07:31:34;-7.00;97.00
10030;DHT22;5055;52.054;8.524;2022-11-20T07:34:03;-7.00;97.00
10030;DHT22;5055;52.054;8.524;2022-11-20T07:36:31;-6.90;97.00
10030;DHT22;5055;52.054;8.524;2022-11-20T07:38:59;-6.70;97.00
10030;DHT22;5055;52.054;8.524;2022-11-20T07:41:28;-6.60;97.00
10030;DHT22;5055;52.054;8.524;2022-11-20T07:43:57;-6.50;97.00
10030;DHT22;5055;52.054;8.524;2022-11-20T07:46:27;-6.40;97.00
10030;DHT22;5055;52.054;8.524;2022-11-20T07:48:55;-6.40;97.00
10030;DHT22;5055;52.054;8.524;2022-11-20T07:51:23;-6.40;97.00
10030;DHT22;5055;52.054;8.524;2022-11-20T07:53:52;-6.30;97.00
10030;DHT22;5055;52.054;8.524;2022-11-20T07:56:21;-6.20;97.00
10030;DHT22;5055;52.054;8.524;2022-11-20T07:58:49;-6.10;97.00
10030;DHT22;5055;52.054;8.524;2022-11-20T08:01:18;-6.00;97.00
10030;DHT22;5055;52.054;8.524;2022-11-20T08:03:47;-5.90;97.00
10030;DHT22;5055;52.054;8.524;2022-11-20T08:06:16;-5.70;97.00
10030;DHT22;5055;52.054;8.524;2022-11-20T08:08:45;-5.60;97.00
10030;DHT22;5055;52.054;8.524;2022-11-20T08:11:13;-5.50;97.00
10030;DHT22;5055;52.054;8.524;2022-11-20T08:13:59;-5.30;97.00
10030;DHT22;5055;52.054;8.524;2022-11-20T08:16:41;-5.10;97.00
10030;DHT22;5055;52.054;8.524;2022-11-20T08:19:11;-5.00;97.00
10030;DHT22;5055;52.054;8.524;2022-11-20T08:21:40;-4.90;97.00
10030;DHT22;5055;52.054;8.524;2022-11-20T08:24:09;-4.80;97.00
10030;DHT22;5055;52.054;8.524;2022-11-20T08:26:38;-4.40;97.00
10030;DHT22;5055;52.054;8.524;2022-11-20T08:29:07;-3.80;97.00
10030;DHT22;5055;52.054;8.524;2022-11-20T08:31:36;-3.20;97.00
10030;DHT22;5055;52.054;8.524;2022-11-20T08:34:04;-2.80;97.00
10030;DHT22;5055;52.054;8.524;2022-11-20T08:36:37;-2.30;97.00
10030;DHT22;5055;52.054;8.524;2022-11-20T08:39:05;-2.10;97.00
10030;DHT22;5055;52.054;8.524;2022-11-20T08:41:34;-1.90;97.00
10030;DHT22;5055;52.054;8.524;2022-11-20T08:44:05;-1.50;97.00
10030;DHT22;5055;52.054;8.524;2022-11-20T08:46:35;-1.10;97.00
10030;DHT22;5055;52.054;8.524;2022-11-20T08:49:04;-0.70;97.00
10030;DHT22;5055;52.054;8.524;2022-11-20T08:51:33;-0.30;97.00
10030;DHT22;5055;52.054;8.524;2022-11-20T08:54:03;0.00;97.00
10030;DHT22;5055;52.054;8.524;2022-11-20T08:56:32;0.20;97.00
10030;DHT22;5055;52.054;8.524;2022-11-20T08:59:01;0.70;97.00
10030;DHT22;5055;52.054;8.524;2022-11-20T09:01:49;1.10;97.00
10030;DHT22;5055;52.054;8.524;2022-11-20T09:04:18;1.70;97.00
10030;DHT22;5055;52.054;8.524;2022-11-20T09:06:46;2.00;97.00
10030;DHT22;5055;52.054;8.524;2022-11-20T09:09:19;2.50;97.00
10030;DHT22;5055;52.054;8.524;2022-11-20T09:11:48;2.90;97.00
10030;DHT22;5055;52.054;8.524;2022-11-20T09:14:18;2.80;97.00
10030;DHT22;5055;52.054;8.524;2022-11-20T09:16:46;2.60;97.00
10030;DHT22;5055;52.054;8.524;2022-11-20T09:19:14;2.20;97.00
10030;DHT22;5055;52.054;8.524;2022-11-20T09:22:03;2.00;97.00
10030;DHT22;5055;52.054;8.524;2022-11-20T09:24:33;1.70;97.00
10030;DHT22;5055;52.054;8.524;2022-11-20T09:27:04;1.60;97.00
10030;DHT22;5055;52.054;8.524;2022-11-20T09:29:33;1.60;97.00
10030;DHT22;5055;52.054;8.524;2022-11-20T09:32:01;1.80;97.00
10030;DHT22;5055;52.054;8.524;2022-11-20T09:34:30;2.00;97.00
10030;DHT22;5055;52.054;8.524;2022-11-20T09:36:58;2.20;97.00
10030;DHT22;5055;52.054;8.524;2022-11-20T09:39:34;2.10;97.00
10030;DHT22;5055;52.054;8.524;2022-11-20T09:42:17;2.00;97.00
10030;DHT22;5055;52.054;8.524;2022-11-20T09:44:56;2.20;97.00
10030;DHT22;5055;52.054;8.524;2022-11-20T09:47:37;2.20;97.00
10030;DHT22;5055;52.054;8.524;2022-11-20T09:50:21;2.10;97.00
10030;DHT22;5055;52.054;8.524;2022-11-20T09:55:42;2.20;97.00
10030;DHT22;5055;52.054;8.524;2022-11-20T09:58:16;2.70;97.00
10030;DHT22;5055;52.054;8.524;2022-11-20T10:00:48;2.90;97.00
10030;DHT22;5055;52.054;8.524;2022-11-20T10:03:21;2.90;97.00
10030;DHT22;5055;52.054;8.524;2022-11-20T10:05:54;2.70;97.00
10030;DHT22;5055;52.054;8.524;2022-11-20T10:08:25;2.60;97.00
10030;DHT22;5055;52.054;8.524;2022-11-20T10:11:03;2.40;97.00
10030;DHT22;5055;52.054;8.524;2022-11-20T10:13:40;2.20;97.00
10030;DHT22;5055;52.054;8.524;2022-11-20T10:16:21;2.00;97.00
10030;DHT22;5055;52.054;8.524;2022-11-20T10:19:03;1.70;97.00
10030;DHT22;5055;52.054;8.524;2022-11-20T10:21:51;1.50;97.00
10030;DHT22;5055;52.054;8.524;2022-11-20T10:24:42;1.30;97.00
10030;DHT22;5055;52.054;8.524;2022-11-20T10:27:35;1.20;97.00
10030;DHT22;5055;52.054;8.524;2022-11-20T10:30:09;1.20;97.00
10030;DHT22;5055;52.054;8.524;2022-11-20T10:32:40;1.40;97.00
10030;DHT22;5055;52.054;8.524;2022-11-20T10:35:18;1.60;97.00
10030;DHT22;5055;52.054;8.524;2022-11-20T10:37:52;1.70;97.00
10030;DHT22;5055;52.054;8.524;2022-11-20T10:40:27;1.90;97.00
10030;DHT22;5055;52.054;8.524;2022-11-20T10:43:00;2.00;97.00
10030;DHT22;5055;52.054;8.524;2022-11-20T10:45:44;1.90;97.00
10030;DHT22;5055;52.054;8.524;2022-11-20T10:48:17;2.00;97.00
10030;DHT22;5055;52.054;8.524;2022-11-20T10:50:55;2.00;97.00
10030;DHT22;5055;52.054;8.524;2022-11-20T10:53:42;2.00;97.00
10030;DHT22;5055;52.054;8.524;2022-11-20T10:56:17;2.00;97.00
10030;DHT22;5055;52.054;8.524;2022-11-20T10:59:08;2.00;97.00
10030;DHT22;5055;52.054;8.524;2022-11-20T11:01:41;2.00;97.00
10030;DHT22;5055;52.054;8.524;2022-11-20T11:04:22;2.00;97.00
10030;DHT22;5055;52.054;8.524;2022-11-20T11:06:54;2.00;97.00
10030;DHT22;5055;52.054;8.524;2022-11-20T11:09:32;2.00;97.00
10030;DHT22;5055;52.054;8.524;2022-11-20T11:12:01;2.00;97.00
10030;DHT22;5055;52.054;8.524;2022-11-20T11:14:47;2.00;97.00
10030;DHT22;5055;52.054;8.524;2022-11-20T11:17:25;2.10;97.00
10030;DHT22;5055;52.054;8.524;2022-11-20T11:20:04;2.10;97.00
10030;DHT22;5055;52.054;8.524;2022-11-20T11:22:35;2.10;97.00
10030;DHT22;5055;52.054;8.524;2022-11-20T11:25:19;2.10;97.00
10030;DHT22;5055;52.054;8.524;2022-11-20T11:27:49;2.20;97.00
10030;DHT22;5055;52.054;8.524;2022-11-20T11:30:20;2.20;97.00
10030;DHT22;5055;52.054;8.524;2022-11-20T11:32:49;2.20;97.00
10030;DHT22;5055;52.054;8.524;2022-11-20T11:35:25;2.30;97.00
10030;DHT22;5055;52.054;8.524;2022-11-20T11:38:03;2.40;97.00
10030;DHT22;5055;52.054;8.524;2022-11-20T11:40:33;2.40;97.00
10030;DHT22;5055;52.054;8.524;2022-11-20T11:43:05;2.50;97.00
10030;DHT22;5055;52.054;8.524;2022-11-20T11:45:56;2.50;97.00
10030;DHT22;5055;52.054;8.524;2022-11-20T11:48:23;2.60;97.00
10030;DHT22;5055;52.054;8.524;2022-11-20T11:50:52;2.60;97.00
10030;DHT22;5055;52.054;8.524;2022-11-20T11:53:22;2.70;97.00
10030;DHT22;5055;52.054;8.524;2022-11-20T11:55:56;2.60;97.00
10030;DHT22;5055;52.054;8.524;2022-11-20T11:58:39;2.60;97.00
10030;DHT22;5055;52.054;8.524;2022-11-20T12:01:17;2.70;97.00
10030;DHT22;5055;52.054;8.524;2022-11-20T12:03:55;2.70;97.00
10030;DHT22;5055;52.054;8.524;2022-11-20T12:06:26;2.60;97.00
10030;DHT22;5055;52.054;8.524;2022-11-20T12:09:01;2.70;97.00
10030;DHT22;5055;52.054;8.524;2022-11-20T12:11:34;2.90;97.00
10030;DHT22;5055;52.054;8.524;2022-11-20T12:14:11;3.10;97.00
10030;DHT22;5055;52.054;8.524;2022-11-20T12:16:43;3.10;97.00
10030;DHT22;5055;52.054;8.524;2022-11-20T12:19:13;3.20;97.00
10030;DHT22;5055;52.054;8.524;2022-11-20T12:21:52;3.10;97.00
10030;DHT22;5055;52.054;8.524;2022-11-20T12:24:44;3.10;97.00
10030;DHT22;5055;52.054;8.524;2022-11-20T12:27:42;3.10;97.00
10030;DHT22;5055;52.054;8.524;2022-11-20T12:30:14;3.10;97.00
10030;DHT22;5055;52.054;8.524;2022-11-20T12:33:07;3.10;97.00
10030;DHT22;5055;52.054;8.524;2022-11-20T12:36:06;3.30;97.00
10030;DHT22;5055;52.054;8.524;2022-11-20T12:38:56;3.50;97.00
10030;DHT22;5055;52.054;8.524;2022-11-20T12:41:40;3.70;97.00
10030;DHT22;5055;52.054;8.524;2022-11-20T12:47:51;4.70;97.00
10030;DHT22;5055;52.054;8.524;2022-11-20T12:50:31;5.50;97.00
10030;DHT22;5055;52.054;8.524;2022-11-20T12:53:29;6.20;97.00
10030;DHT22;5055;52.054;8.524;2022-11-20T12:56:06;6.50;97.00
10030;DHT22;5055;52.054;8.524;2022-11-20T12:58:46;6.70;97.00
10030;DHT22;5055;52.054;8.524;2022-11-20T13:01:24;6.90;97.00
10030;DHT22;5055;52.054;8.524;2022-11-20T13:04:19;7.20;97.00
10030;DHT22;5055;52.054;8.524;2022-11-20T13:06:54;7.40;97.00
10030;DHT22;5055;52.054;8.524;2022-11-20T13:09:23;7.50;97.00
10030;DHT22;5055;52.054;8.524;2022-11-20T13:12:00;7.90;97.00
10030;DHT22;5055;52.054;8.524;2022-11-20T13:14:36;8.50;97.00
10030;DHT22;5055;52.054;8.524;2022-11-20T13:17:09;8.70;97.00
10030;DHT22;5055;52.054;8.524;2022-11-20T13:19:40;8.90;97.00
10030;DHT22;5055;52.054;8.524;2022-11-20T13:22:10;8.80;97.00
10030;DHT22;5055;52.054;8.524;2022-11-20T13:24:38;8.90;97.00
10030;DHT22;5055;52.054;8.524;2022-11-20T13:27:19;8.80;97.00
10030;DHT22;5055;52.054;8.524;2022-11-20T13:30:01;8.60;97.00
10030;DHT22;5055;52.054;8.524;2022-11-20T13:32:29;8.70;97.00
10030;DHT22;5055;52.054;8.524;2022-11-20T13:35:01;9.00;97.00
10030;DHT22;5055;52.054;8.524;2022-11-20T13:37:34;9.00;97.00
10030;DHT22;5055;52.054;8.524;2022-11-20T13:40:13;9.10;97.00
10030;DHT22;5055;52.054;8.524;2022-11-20T13:42:55;9.10;97.00
10030;DHT22;5055;52.054;8.524;2022-11-20T13:45:26;9.40;97.00
10030;DHT22;5055;52.054;8.524;2022-11-20T13:47:55;9.30;97.00
10030;DHT22;5055;52.054;8.524;2022-11-20T13:50:40;9.40;97.00
10030;DHT22;5055;52.054;8.524;2022-11-20T13:53:28;9.00;97.00
10030;DHT22;5055;52.054;8.524;2022-11-20T13:56:01;8.30;97.00
10030;DHT22;5055;52.054;8.524;2022-11-20T13:58:44;7.70;97.00
10030;DHT22;5055;52.054;8.524;2022-11-20T14:01:19;7.00;97.00
10030;DHT22;5055;52.054;8.524;2022-11-20T14:03:48;6.40;97.00
10030;DHT22;5055;52.054;8.524;2022-11-20T14:06:34;6.00;97.00
10030;DHT22;5055;52.054;8.524;2022-11-20T14:09:12;5.70;97.00
10030;DHT22;5055;52.054;8.524;2022-11-20T14:11:46;5.90;97.00
10030;DHT22;5055;52.054;8.524;2022-11-20T14:14:17;6.00;97.00
10030;DHT22;5055;52.054;8.524;2022-11-20T14:16:48;6.40;97.00
10030;DHT22;5055;52.054;8.524;2022-11-20T14:19:28;6.30;97.00
10030;DHT22;5055;52.054;8.524;2022-11-20T14:22:10;6.20;97.00
10030;DHT22;5055;52.054;8.524;2022-11-20T14:24:40;5.60;97.00
10030;DHT22;5055;52.054;8.524;2022-11-20T14:27:13;5.10;97.00
10030;DHT22;5055;52.054;8.524;2022-11-20T14:29:43;4.80;97.00
10030;DHT22;5055;52.054;8.524;2022-11-20T14:32:16;4.50;97.00
10030;DHT22;5055;52.054;8.524;2022-11-20T14:34:47;4.40;97.00
10030;DHT22;5055;52.054;8.524;2022-11-20T14:37:19;4.10;97.00
10030;DHT22;5055;52.054;8.524;2022-11-20T14:39:51;3.90;97.00
10030;DHT22;5055;52.054;8.524;2022-11-20T14:42:23;3.70;97.00
10030;DHT22;5055;52.054;8.524;2022-11-20T14:44:55;3.60;97.00
10030;DHT22;5055;52.054;8.524;2022-11-20T14:47:26;3.40;97.00
10030;DHT22;5055;52.054;8.524;2022-11-20T14:49:56;3.30;97.00
10030;DHT22;5055;52.054;8.524;2022-11-20T14:52:27;3.20;97.00
10030;DHT22;5055;52.054;8.524;2022-11-20T14:54:58;3.00;97.00
10030;DHT22;5055;52.054;8.524;2022-11-20T14:57:29;2.90;97.00
10030;DHT22;5055;52.054;8.524;2022-11-20T15:00:18;2.80;97.00
10030;DHT22;5055;52.054;8.524;2022-11-20T15:02:49;2.70;97.00
10030;DHT22;5055;52.054;8.524;2022-11-20T15:05:19;2.60;97.00
10030;DHT22;5055;52.054;8.524;2022-11-20T15:07:49;2.60;97.00
10030;DHT22;5055;52.054;8.524;2022-11-20T15:10:24;2.60;97.00
10030;DHT22;5055;52.054;8.524;2022-11-20T15:12:54;2.50;97.00
10030;DHT22;5055;52.054;8.524;2022-11-20T15:15:27;2.50;97.00
10030;DHT22;5055;52.054;8.524;2022-11-20T15:17:58;2.40;97.00
10030;DHT22;5055;52.054;8.524;2022-11-20T15:20:27;2.40;97.00
10030;DHT22;5055;52.054;8.524;2022-11-20T15:22:56;2.40;97.00
10030;DHT22;5055;52.054;8.524;2022-11-20T15:25:26;2.40;97.00
10030;DHT22;5055;52.054;8.524;2022-11-20T15:27:56;2.30;97.00
10030;DHT22;5055;52.054;8.524;2022-11-20T15:30:25;2.30;97.00
10030;DHT22;5055;52.054;8.524;2022-11-20T15:32:53;2.30;97.00
10030;DHT22;5055;52.054;8.524;2022-11-20T15:35:22;2.30;97.00
10030;DHT22;5055;52.054;8.524;2022-11-20T15:37:50;2.20;97.00
10030;DHT22;5055;52.054;8.524;2022-11-20T15:40:19;2.20;97.00
10030;DHT22;5055;52.054;8.524;2022-11-20T15:42:49;2.20;97.00
10030;DHT22;5055;52.054;8.524;2022-11-20T15:45:41;2.10;97.00
10030;DHT22;5055;52.054;8.524;2022-11-20T15:48:13;2.10;97.00
10030;DHT22;5055;52.054;8.524;2022-11-20T15:50:50;2.10;97.00
10030;DHT22;5055;52.054;8.524;2022-11-20T15:53:20;2.00;97.00
10030;DHT22;5055;52.054;8.524;2022-11-20T15:55:49;2.00;97.00
10030;DHT22;5055;52.054;8.524;2022-11-20T15:58:19;2.00;97.00
10030;DHT22;5055;52.054;8.524;2022-11-20T16:00:50;2.00;97.00
10030;DHT22;5055;52.054;8.524;2022-11-20T16:03:19;1.90;97.00
10030;DHT22;5055;52.054;8.524;2022-11-20T16:05:48;1.90;97.00
10030;DHT22;5055;52.054;8.524;2022-11-20T16:08:16;1.90;97.00
10030;DHT22;5055;52.054;8.524;2022-11-20T16:10:45;1.80;97.00
10030;DHT22;5055;52.054;8.524;2022-11-20T16:13:15;1.80;97.00
10030;DHT22;5055;52.054;8.524;2022-11-20T16:16:04;1.80;97.00
10030;DHT22;5055;52.054;8.524;2022-11-20T16:18:35;1.80;97.00
10030;DHT22;5055;52.054;8.524;2022-11-20T16:21:10;1.80;97.00
10030;DHT22;5055;52.054;8.524;2022-11-20T16:23:39;1.80;97.00
10030;DHT22;5055;52.054;8.524;2022-11-20T16:26:11;1.80;97.00
10030;DHT22;5055;52.054;8.524;2022-11-20T16:28:40;1.80;97.00
10030;DHT22;5055;52.054;8.524;2022-11-20T16:31:11;1.80;97.00